Time;durP1;ratioP1;P1;durP2;ratioP2;P2;SDS_P1;SDS_P2;PMS_P1;PMS_P2;Temp;Humidity;BMP_temperature;BMP_pressure;BME280_temperature;BME280_humidity;BME280_pressure;Samples;Min_cycle;Max_cycle;Signal;HPM_P1;HPM_P2
2021/01/28 00:00:57;;;;;;;490.70;84.20;;;3.60;99.90;;;;;;4992711;28;20660;-77
2021/01/28 00:03:24;;;;;;;414.95;77.93;;;3.60;99.90;;;;;;5029202;28;20052;-75
2021/01/28 00:05:50;;;;;;;428.70;82.40;;;3.60;99.90;;;;;;5023557;28;20061;-76
2021/01/28 00:08:16;;;;;;;529.65;87.38;;;3.60;99.90;;;;;;5025929;28;20452;-76
2021/01/28 00:10:43;;;;;;;558.67;99.85;;;3.60;99.90;;;;;;5007841;28;20073;-75
2021/01/28 00:13:11;;;;;;;567.78;95.05;;;3.60;99.90;;;;;;4992912;28;20119;-76
2021/01/28 00:15:39;;;;;;;518.00;93.85;;;3.60;99.90;;;;;;5016235;28;20060;-76
2021/01/28 00:18:08;;;;;;;504.00;93.70;;;3.60;99.90;;;;;;5045528;28;20128;-75
2021/01/28 00:20:43;;;;;;;535.30;92.43;;;3.60;99.90;;;;;;5028565;28;20059;-75
2021/01/28 00:23:11;;;;;;;537.92;93.30;;;3.60;99.90;;;;;;5044087;28;20064;-76
2021/01/28 00:25:38;;;;;;;437.17;76.43;;;3.60;99.90;;;;;;5044744;28;20057;-76
2021/01/28 00:28:07;;;;;;;585.40;105.72;;;3.60;99.90;;;;;;5036382;28;20515;-76
2021/01/28 00:30:37;;;;;;;647.97;109.57;;;3.60;99.90;;;;;;5064774;28;20056;-76
2021/01/28 00:33:04;;;;;;;587.15;99.50;;;3.60;99.90;;;;;;5053348;28;20131;-75
2021/01/28 00:35:34;;;;;;;608.13;107.72;;;3.60;99.90;;;;;;5050545;28;20051;-76
2021/01/28 00:38:04;;;;;;;503.20;94.95;;;3.70;99.90;;;;;;5049123;28;20493;-76
2021/01/28 00:40:31;;;;;;;483.08;84.18;;;3.60;99.90;;;;;;5047631;28;20557;-76
2021/01/28 00:42:58;;;;;;;804.75;145.68;;;3.70;99.90;;;;;;5030188;28;20545;-76
2021/01/28 00:45:28;;;;;;;566.35;100.70;;;3.70;99.90;;;;;;5035575;28;20113;-76
2021/01/28 00:47:56;;;;;;;667.08;114.35;;;3.70;99.90;;;;;;5045868;28;20087;-76
2021/01/28 00:50:25;;;;;;;659.05;119.57;;;3.70;99.90;;;;;;5026780;28;20056;-76
2021/01/28 00:52:52;;;;;;;661.42;112.95;;;3.70;99.90;;;;;;5045758;28;20071;-76
2021/01/28 00:55:22;;;;;;;584.20;111.78;;;3.60;99.90;;;;;;5043783;28;20055;-76
2021/01/28 00:57:53;;;;;;;508.17;95.87;;;3.60;99.90;;;;;;5028357;28;20151;-76
2021/01/28 01:00:29;;;;;;;412.38;80.03;;;3.60;99.90;;;;;;5011033;28;20794;-77
2021/01/28 01:02:56;;;;;;;379.98;72.82;;;3.70;99.90;;;;;;5051901;28;20051;-77
2021/01/28 01:05:26;;;;;;;241.55;51.95;;;3.70;99.90;;;;;;5052543;28;20051;-76
2021/01/28 01:07:53;;;;;;;207.52;47.35;;;3.70;99.90;;;;;;5011725;28;20055;-76
2021/01/28 01:10:33;;;;;;;285.73;59.22;;;3.70;99.90;;;;;;5005651;28;20048;-76
2021/01/28 01:12:59;;;;;;;226.05;48.88;;;3.70;99.90;;;;;;5032458;28;20056;-76
2021/01/28 01:15:26;;;;;;;235.98;49.15;;;3.70;99.90;;;;;;5038498;28;20507;-77
2021/01/28 01:17:53;;;;;;;238.50;55.22;;;3.60;99.90;;;;;;5027892;28;20514;-76
2021/01/28 01:20:26;;;;;;;147.55;37.45;;;3.60;99.90;;;;;;5027501;28;20169;-76
2021/01/28 01:22:53;;;;;;;189.45;45.50;;;3.70;99.90;;;;;;5026598;28;20052;-76
2021/01/28 01:25:21;;;;;;;160.18;38.38;;;3.70;99.90;;;;;;5011950;28;20522;-76
2021/01/28 01:27:48;;;;;;;197.13;47.60;;;3.60;99.90;;;;;;5018398;28;20049;-76
2021/01/28 01:30:39;;;;;;;164.35;39.67;;;3.70;99.90;;;;;;5047229;28;20542;-76
2021/01/28 01:33:06;;;;;;;161.95;44.58;;;3.70;99.90;;;;;;5050381;28;20063;-76
2021/01/28 01:35:46;;;;;;;165.60;44.63;;;3.70;99.90;;;;;;5022755;28;20096;-76
2021/01/28 01:38:13;;;;;;;173.98;42.17;;;3.70;99.90;;;;;;5027688;28;20080;-76
2021/01/28 01:40:45;;;;;;;247.30;56.15;;;3.70;99.90;;;;;;5026581;28;20057;-76
2021/01/28 01:43:13;;;;;;;284.75;61.78;;;3.70;99.90;;;;;;5043789;28;20060;-76
2021/01/28 01:45:52;;;;;;;378.05;79.68;;;3.70;99.90;;;;;;5024898;28;20092;-77
2021/01/28 01:48:27;;;;;;;298.38;61.55;;;3.70;99.90;;;;;;5026733;28;20132;-76
2021/01/28 01:51:17;;;;;;;231.95;54.28;;;3.70;99.90;;;;;;5043619;28;20462;-77
2021/01/28 01:54:00;;;;;;;219.55;53.22;;;3.70;99.90;;;;;;5040624;28;20534;-75
2021/01/28 01:56:36;;;;;;;172.07;45.47;;;3.70;99.90;;;;;;5017525;28;20060;-77
2021/01/28 01:59:14;;;;;;;170.95;46.92;;;3.80;99.90;;;;;;5043996;28;20099;-76
2021/01/28 02:02:09;;;;;;;177.55;46.55;;;3.80;99.90;;;;;;5057004;28;20041;-76
2021/01/28 02:04:57;;;;;;;;;;;3.80;99.90;;;;;;5058431;28;20083;-76
2021/01/28 02:07:44;;;;;;;153.07;40.55;;;3.80;99.90;;;;;;5035307;28;19952;-76
2021/01/28 02:10:29;;;;;;;168.85;41.88;;;3.80;99.90;;;;;;5029724;28;20061;-77
2021/01/28 02:13:24;;;;;;;202.43;45.72;;;3.80;99.90;;;;;;5043375;28;20057;-76
2021/01/28 02:16:05;;;;;;;377.60;73.45;;;3.90;99.90;;;;;;5018982;28;20103;-75
2021/01/28 02:18:43;;;;;;;438.98;77.53;;;3.80;99.90;;;;;;5050855;28;20122;-75
2021/01/28 02:21:28;;;;;;;612.20;108.18;;;3.90;99.90;;;;;;5032005;28;20514;-77
2021/01/28 02:24:18;;;;;;;625.95;103.25;;;3.90;99.90;;;;;;5040205;28;20149;-76
2021/01/28 02:26:48;;;;;;;511.63;85.15;;;3.90;99.90;;;;;;5017141;28;20656;-76
2021/01/28 02:29:32;;;;;;;624.65;98.38;;;3.90;99.90;;;;;;5069809;28;20480;-77
2021/01/28 02:32:01;;;;;;;569.63;92.07;;;3.90;99.90;;;;;;5064075;28;20052;-76
2021/01/28 02:34:30;;;;;;;503.95;81.38;;;3.90;99.90;;;;;;5044989;28;20064;-76
2021/01/28 02:37:15;;;;;;;598.60;98.78;;;3.80;99.90;;;;;;5053041;28;20044;-76
2021/01/28 02:39:56;;;;;;;612.00;103.93;;;3.90;99.90;;;;;;5052869;28;20076;-77
2021/01/28 02:42:41;;;;;;;551.60;94.60;;;3.90;99.90;;;;;;5058787;28;20057;-76
2021/01/28 02:45:26;;;;;;;478.08;78.93;;;3.90;99.90;;;;;;5031282;28;20057;-76
2021/01/28 02:48:15;;;;;;;383.45;72.20;;;3.80;99.90;;;;;;5033395;28;20059;-75
2021/01/28 02:50:51;;;;;;;401.48;77.95;;;3.90;99.90;;;;;;5018391;28;20593;-76
2021/01/28 02:53:19;;;;;;;392.75;74.40;;;3.80;99.90;;;;;;5038196;28;20542;-77
2021/01/28 02:55:49;;;;;;;496.65;90.05;;;3.80;99.90;;;;;;5029090;28;20049;-76
2021/01/28 02:58:17;;;;;;;446.60;84.85;;;3.80;99.90;;;;;;5026161;28;20550;-78
2021/01/28 03:01:04;;;;;;;483.92;88.38;;;3.90;99.90;;;;;;5030806;28;20128;-76
2021/01/28 03:03:31;;;;;;;402.25;79.80;;;3.90;99.90;;;;;;5055268;28;20133;-77
2021/01/28 03:05:58;;;;;;;431.38;81.13;;;3.90;99.90;;;;;;5016029;28;20041;-77
2021/01/28 03:08:26;;;;;;;364.90;73.28;;;3.80;99.90;;;;;;5029144;28;20055;-76
2021/01/28 03:11:21;;;;;;;270.83;57.35;;;3.90;99.90;;;;;;5045376;28;20083;-77
2021/01/28 03:13:51;;;;;;;207.02;49.95;;;3.90;99.90;;;;;;5017375;28;20064;-77
2021/01/28 03:16:47;;;;;;;248.75;55.75;;;3.90;99.90;;;;;;5013228;28;20111;-77
2021/01/28 03:19:24;;;;;;;258.40;54.13;;;3.90;99.90;;;;;;5010450;28;20057;-75
2021/01/28 03:21:58;;;;;;;277.00;64.75;;;4.00;99.90;;;;;;5009479;28;20050;-76
2021/01/28 03:24:34;;;;;;;203.77;51.10;;;3.90;99.90;;;;;;5012723;28;20037;-77
2021/01/28 03:27:15;;;;;;;239.63;58.45;;;3.90;99.90;;;;;;5029551;28;20068;-78
2021/01/28 03:29:42;;;;;;;280.42;61.28;;;4.00;99.90;;;;;;5013120;28;20036;-77
2021/01/28 03:32:12;;;;;;;322.75;70.57;;;3.90;99.90;;;;;;5015318;28;20052;-77
2021/01/28 03:34:39;;;;;;;256.52;62.95;;;4.00;99.90;;;;;;5022190;28;20052;-76
2021/01/28 03:37:06;;;;;;;320.85;73.28;;;3.90;99.90;;;;;;5029217;28;20056;-78
2021/01/28 03:39:43;;;;;;;307.52;70.30;;;3.90;99.90;;;;;;5045601;28;20057;-76
2021/01/28 03:42:10;;;;;;;260.60;63.28;;;4.00;99.90;;;;;;5019905;28;20049;-76
2021/01/28 03:44:38;;;;;;;253.18;61.03;;;3.90;99.90;;;;;;5010793;28;20045;-76
2021/01/28 03:47:05;;;;;;;269.35;61.47;;;3.90;99.90;;;;;;5028906;28;20049;-75
2021/01/28 03:49:45;;;;;;;284.85;63.67;;;3.90;99.90;;;;;;5029400;28;20041;-78
2021/01/28 03:52:16;;;;;;;333.40;69.18;;;4.00;99.90;;;;;;5028682;28;20130;-76
2021/01/28 03:55:12;;;;;;;;;;;3.90;99.90;;;;;;5019366;28;20095;-76
2021/01/28 03:57:44;;;;;;;316.02;64.35;;;3.90;99.90;;;;;;5013581;28;19921;-77
2021/01/28 04:00:16;;;;;;;379.30;75.47;;;3.90;99.90;;;;;;5011848;28;20487;-76
2021/01/28 04:02:56;;;;;;;302.08;63.92;;;3.90;99.90;;;;;;5021778;28;20510;-76
2021/01/28 04:06:01;;;;;;;334.92;69.70;;;3.90;99.90;;;;;;5007099;28;20057;-76
2021/01/28 04:08:54;;;;;;;343.65;67.07;;;4.00;99.90;;;;;;5007212;28;20041;-76
2021/01/28 04:11:39;;;;;;;376.73;76.03;;;3.90;99.90;;;;;;5015036;28;20079;-76
2021/01/28 04:14:23;;;;;;;463.35;85.07;;;4.00;99.90;;;;;;5028725;28;20048;-76
2021/01/28 04:16:49;;;;;;;408.30;75.93;;;3.90;99.90;;;;;;5028438;28;20430;-76
2021/01/28 04:19:16;;;;;;;460.15;90.65;;;3.90;99.90;;;;;;5028464;28;20052;-76
2021/01/28 04:21:46;;;;;;;532.40;97.28;;;3.90;99.90;;;;;;5027313;28;20518;-76
2021/01/28 04:24:12;;;;;;;455.73;82.53;;;3.90;99.90;;;;;;5027918;28;20235;-76
2021/01/28 04:26:54;;;;;;;545.33;103.63;;;3.90;99.90;;;;;;5028698;28;20472;-76
2021/01/28 04:29:38;;;;;;;526.25;92.47;;;4.00;99.90;;;;;;5008134;28;20049;-76
2021/01/28 04:32:10;;;;;;;502.75;92.43;;;4.00;99.90;;;;;;5014117;28;20060;-75
2021/01/28 04:34:59;;;;;;;609.05;103.03;;;4.00;99.90;;;;;;5038512;28;20048;-77
2021/01/28 04:37:26;;;;;;;684.38;115.47;;;3.90;99.90;;;;;;5063565;28;20683;-76
2021/01/28 04:40:00;;;;;;;578.13;104.65;;;4.00;99.90;;;;;;5047400;28;20040;-76
2021/01/28 04:42:43;;;;;;;618.80;103.57;;;3.90;99.90;;;;;;5047116;28;20040;-76
2021/01/28 04:45:18;;;;;;;620.67;110.60;;;3.90;99.90;;;;;;5038203;28;20045;-75
2021/01/28 04:47:56;;;;;;;648.67;109.20;;;3.90;99.90;;;;;;5024604;28;20132;-76
2021/01/28 04:50:54;;;;;;;660.20;107.68;;;3.90;99.90;;;;;;5011969;28;20050;-75
2021/01/28 04:53:40;;;;;;;588.38;109.25;;;3.90;99.90;;;;;;5007654;28;20447;-75
2021/01/28 04:56:32;;;;;;;513.65;90.45;;;3.90;99.90;;;;;;5010634;28;20135;-76
2021/01/28 04:59:28;;;;;;;562.17;99.88;;;3.90;99.90;;;;;;5008213;28;20388;-76
2021/01/28 05:01:59;;;;;;;530.30;93.28;;;3.90;99.90;;;;;;5026016;28;20055;-77
2021/01/28 05:04:59;;;;;;;458.77;81.43;;;3.90;99.90;;;;;;5036542;28;20050;-76
2021/01/28 05:07:46;;;;;;;476.13;92.22;;;3.90;99.90;;;;;;5009242;28;20053;-75
2021/01/28 05:10:41;;;;;;;497.92;94.45;;;3.90;99.90;;;;;;4984922;28;20531;-76
2021/01/28 05:13:30;;;;;;;539.17;95.50;;;3.90;99.90;;;;;;5055986;28;20439;-76
2021/01/28 05:16:35;;;;;;;541.35;96.95;;;3.90;99.90;;;;;;5072847;28;20604;-76
2021/01/28 05:19:47;;;;;;;515.38;87.35;;;3.90;99.90;;;;;;4946489;28;20070;-75
2021/01/28 05:22:44;;;;;;;414.48;77.00;;;3.90;99.90;;;;;;4962239;28;20050;-76
2021/01/28 05:25:27;;;;;;;430.33;79.95;;;3.90;99.90;;;;;;4998251;28;20120;-76
2021/01/28 05:28:41;;;;;;;351.13;75.00;;;3.90;99.90;;;;;;5038624;28;20056;-76
2021/01/28 05:31:29;;;;;;;357.73;72.43;;;4.00;99.90;;;;;;5055963;28;20057;-75
2021/01/28 05:34:31;;;;;;;431.33;81.53;;;4.00;99.90;;;;;;5052665;28;20052;-75
2021/01/28 05:37:18;;;;;;;386.73;78.53;;;4.10;99.90;;;;;;5044134;28;20412;-76
2021/01/28 05:40:22;;;;;;;353.20;75.97;;;4.20;99.90;;;;;;5043055;28;20057;-77
2021/01/28 05:43:01;;;;;;;294.52;68.13;;;4.00;99.90;;;;;;5043064;28;20053;-76
2021/01/28 05:45:33;;;;;;;330.65;69.90;;;4.00;99.90;;;;;;5042993;28;20052;-75
2021/01/28 05:48:29;;;;;;;256.23;60.88;;;4.00;99.90;;;;;;5023884;28;20580;-76
2021/01/28 05:51:19;;;;;;;243.18;60.63;;;4.00;99.90;;;;;;5018743;28;20096;-76
2021/01/28 05:53:56;;;;;;;262.08;61.25;;;4.10;99.90;;;;;;5016607;28;20131;-76
2021/01/28 05:56:26;;;;;;;203.80;50.53;;;4.00;99.90;;;;;;5024322;28;20136;-77
2021/01/28 05:59:06;;;;;;;179.20;49.10;;;4.10;99.90;;;;;;4990900;28;20053;-76
2021/01/28 06:01:42;;;;;;;160.55;44.47;;;4.00;99.90;;;;;;5007816;28;20076;-76
2021/01/28 06:04:35;;;;;;;155.02;43.60;;;4.00;99.90;;;;;;5032352;28;20052;-76
2021/01/28 06:07:45;;;;;;;161.73;45.92;;;4.00;99.90;;;;;;5024408;28;20049;-75
2021/01/28 06:11:03;;;;;;;161.43;45.47;;;3.90;99.90;;;;;;5011097;28;20136;-75
2021/01/28 06:14:02;;;;;;;170.50;48.20;;;4.00;99.90;;;;;;5003723;28;20116;-76
2021/01/28 06:17:08;;;;;;;166.15;49.60;;;4.10;99.90;;;;;;5008978;28;20456;-77
2021/01/28 06:20:26;;;;;;;178.55;49.35;;;4.10;99.90;;;;;;5023636;28;20053;-76
2021/01/28 06:23:13;;;;;;;223.35;59.67;;;4.20;99.90;;;;;;5023540;28;20057;-75
2021/01/28 06:26:07;;;;;;;150.00;44.00;;;4.30;99.90;;;;;;5029768;28;20049;-76
2021/01/28 06:29:24;;;;;;;138.07;47.20;;;4.30;99.90;;;;;;5034231;28;20127;-77
2021/01/28 06:32:19;;;;;;;158.75;44.00;;;4.20;99.90;;;;;;5009639;28;20056;-76
2021/01/28 06:35:40;;;;;;;151.82;42.42;;;4.20;99.90;;;;;;4983110;28;20050;-75
2021/01/28 06:39:01;;;;;;;160.82;43.53;;;4.10;99.90;;;;;;5042579;28;20495;-76
2021/01/28 06:42:03;;;;;;;156.15;42.85;;;4.00;99.90;;;;;;5044394;28;20049;-75
2021/01/28 06:45:16;;;;;;;178.88;48.95;;;4.00;99.90;;;;;;5043803;28;20057;-75
2021/01/28 06:47:59;;;;;;;153.20;45.58;;;3.90;99.90;;;;;;5028082;28;20057;-76
2021/01/28 06:50:52;;;;;;;165.50;46.88;;;3.90;99.90;;;;;;5047488;28;20530;-77
2021/01/28 06:53:32;;;;;;;173.07;48.65;;;3.90;99.90;;;;;;5013163;28;20083;-75
2021/01/28 06:56:28;;;;;;;150.48;45.05;;;3.90;99.90;;;;;;5031493;28;20056;-75
2021/01/28 06:59:52;;;;;;;144.52;42.95;;;3.90;99.90;;;;;;5009967;28;20053;-75
2021/01/28 07:02:51;;;;;;;132.65;44.38;;;3.80;99.90;;;;;;5019408;28;20037;-76
2021/01/28 07:05:38;;;;;;;134.38;41.85;;;3.80;99.90;;;;;;5045411;28;20792;-75
2021/01/28 07:08:27;;;;;;;126.47;43.15;;;3.70;99.90;;;;;;5029442;28;20126;-75
2021/01/28 07:11:28;;;;;;;135.32;42.53;;;3.80;99.90;;;;;;5006388;28;20159;-76
2021/01/28 07:14:17;;;;;;;147.40;43.78;;;3.70;99.90;;;;;;4999806;28;20095;-75
2021/01/28 07:17:23;;;;;;;147.80;45.58;;;3.80;99.90;;;;;;5028989;28;20052;-75
2021/01/28 07:19:54;;;;;;;116.60;40.95;;;3.80;99.90;;;;;;5045282;28;20669;-76
2021/01/28 07:22:39;;;;;;;128.77;40.38;;;3.80;99.90;;;;;;5028236;28;20049;-75
2021/01/28 07:25:22;;;;;;;128.25;41.25;;;3.80;99.90;;;;;;5031963;28;20056;-76
2021/01/28 07:28:14;;;;;;;135.48;42.90;;;3.70;99.90;;;;;;5045688;28;20063;-76
2021/01/28 07:30:45;;;;;;;121.28;40.30;;;3.80;99.90;;;;;;5044258;28;20793;-76
2021/01/28 07:33:23;;;;;;;121.68;39.35;;;3.70;99.90;;;;;;5030714;28;20049;-76
2021/01/28 07:36:23;;;;;;;113.90;37.38;;;3.70;99.90;;;;;;5048242;28;20064;-77
2021/01/28 07:39:31;;;;;;;126.65;42.97;;;3.60;99.90;;;;;;5035128;28;20495;-76
2021/01/28 07:42:16;;;;;;;;;;;3.60;99.90;;;;;;5009563;28;20057;-76
2021/01/28 07:45:34;;;;;;;133.05;43.35;;;3.60;99.90;;;;;;5034101;28;19921;-76
2021/01/28 07:48:27;;;;;;;121.80;36.85;;;3.60;99.90;;;;;;5029568;28;20049;-75
2021/01/28 07:51:30;;;;;;;131.65;38.95;;;3.60;99.90;;;;;;5025771;28;20049;-76
2021/01/28 07:53:58;;;;;;;;;;;3.70;99.90;;;;;;5009430;28;20049;-76
2021/01/28 07:56:40;;;;;;;154.07;42.38;;;3.70;99.90;;;;;;5025818;28;19921;-76
2021/01/28 07:59:14;;;;;;;136.05;39.20;;;3.70;99.90;;;;;;5002860;28;20049;-76
2021/01/28 08:01:43;;;;;;;106.80;35.45;;;3.70;99.90;;;;;;5012076;28;20045;-77
2021/01/28 08:04:34;;;;;;;122.47;41.22;;;3.70;99.90;;;;;;5038386;28;20053;-76
2021/01/28 08:07:05;;;;;;;115.20;38.80;;;3.70;99.90;;;;;;5048123;28;20163;-76
2021/01/28 08:09:45;;;;;;;106.53;34.13;;;3.70;99.90;;;;;;5048357;28;20072;-76
2021/01/28 08:12:12;;;;;;;138.45;41.35;;;3.80;99.90;;;;;;5032396;28;20070;-76
2021/01/28 08:14:43;;;;;;;124.97;37.33;;;3.90;99.90;;;;;;5040673;28;20049;-76
2021/01/28 08:17:17;;;;;;;122.60;39.53;;;3.90;99.90;;;;;;5012521;28;20190;-76
2021/01/28 08:19:43;;;;;;;118.57;39.17;;;4.00;99.90;;;;;;5045411;28;20143;-76
2021/01/28 08:22:17;;;;;;;125.35;39.88;;;4.00;99.90;;;;;;5044655;28;20040;-76
2021/01/28 08:24:57;;;;;;;103.43;35.47;;;4.10;99.90;;;;;;5008929;28;20053;-76
2021/01/28 08:27:33;;;;;;;141.07;43.30;;;4.00;99.90;;;;;;5010858;28;20045;-76
2021/01/28 08:30:21;;;;;;;155.27;47.13;;;4.10;99.90;;;;;;5012688;28;20106;-77
2021/01/28 08:32:54;;;;;;;234.82;55.35;;;3.80;99.90;;;;;;5024044;28;20396;-76
2021/01/28 08:35:26;;;;;;;157.77;43.85;;;3.60;99.90;;;;;;5039129;28;20128;-72
2021/01/28 08:38:04;;;;;;;146.93;43.58;;;3.50;99.90;;;;;;5051187;28;20415;-74
2021/01/28 08:40:31;;;;;;;152.52;44.40;;;3.50;99.90;;;;;;5017630;28;20071;-73
2021/01/28 08:43:13;;;;;;;153.27;43.00;;;3.50;99.90;;;;;;5048382;28;20048;-73
2021/01/28 08:45:41;;;;;;;148.90;43.35;;;3.50;99.90;;;;;;5054772;28;20118;-74
2021/01/28 08:48:13;;;;;;;131.18;38.67;;;3.40;99.90;;;;;;5044395;28;20056;-73
2021/01/28 08:50:42;;;;;;;129.63;38.13;;;3.40;99.90;;;;;;5043432;28;20060;-73
2021/01/28 08:53:22;;;;;;;119.68;35.20;;;3.50;99.90;;;;;;5025381;28;20048;-73
2021/01/28 08:55:49;;;;;;;151.82;40.50;;;3.40;99.90;;;;;;5040441;28;20534;-74
2021/01/28 08:58:34;;;;;;;136.63;37.20;;;3.50;99.90;;;;;;5044140;28;20439;-74
2021/01/28 09:01:03;;;;;;;95.68;28.85;;;3.60;99.90;;;;;;5027316;28;20049;-73
2021/01/28 09:03:33;;;;;;;70.03;24.60;;;3.40;99.90;;;;;;5030358;28;20048;-73
2021/01/28 09:06:02;;;;;;;63.03;22.27;;;3.30;99.90;;;;;;5010795;28;20122;-73
2021/01/28 09:08:35;;;;;;;59.80;21.70;;;3.30;99.90;;;;;;5044422;28;20400;-73
2021/01/28 09:11:26;;;;;;;55.38;19.50;;;3.20;99.90;;;;;;5029350;28;20055;-74
2021/01/28 09:14:04;;;;;;;65.20;21.88;;;3.30;99.90;;;;;;5043735;28;20060;-74
2021/01/28 09:16:32;;;;;;;51.33;20.40;;;3.20;99.90;;;;;;5044229;28;20076;-73
2021/01/28 09:19:16;;;;;;;40.10;16.40;;;3.30;99.90;;;;;;5043742;28;20099;-73
2021/01/28 09:21:44;;;;;;;46.17;16.77;;;3.30;99.90;;;;;;5041327;28;20505;-73
2021/01/28 09:24:25;;;;;;;46.80;18.38;;;3.30;99.90;;;;;;5002535;28;20048;-73
2021/01/28 09:27:14;;;;;;;39.47;16.77;;;3.30;99.90;;;;;;5038204;28;20049;-73
2021/01/28 09:29:42;;;;;;;33.45;13.90;;;3.20;99.90;;;;;;5035963;28;20056;-72
2021/01/28 09:32:13;;;;;;;35.75;13.82;;;3.10;99.90;;;;;;5054858;28;20072;-74
2021/01/28 09:34:41;;;;;;;28.08;12.63;;;3.10;99.90;;;;;;5033630;28;20049;-72
2021/01/28 09:37:20;;;;;;;32.08;14.27;;;3.00;99.90;;;;;;5043559;28;20049;-73
2021/01/28 09:39:52;;;;;;;33.15;13.75;;;2.90;99.90;;;;;;5027350;28;20081;-73
2021/01/28 09:42:33;;;;;;;34.10;15.32;;;2.90;99.90;;;;;;5027089;28;20037;-74
2021/01/28 09:45:06;;;;;;;31.70;14.48;;;3.00;99.90;;;;;;5023858;28;20069;-73
2021/01/28 09:47:33;;;;;;;37.92;15.45;;;3.00;99.90;;;;;;5027229;28;20368;-73
2021/01/28 09:50:03;;;;;;;28.63;12.68;;;3.00;99.90;;;;;;5045071;28;20049;-73
2021/01/28 09:52:31;;;;;;;28.88;12.30;;;3.00;99.90;;;;;;5022196;28;20045;-74
2021/01/28 09:55:01;;;;;;;25.23;11.50;;;3.00;99.90;;;;;;5032557;28;20057;-73
2021/01/28 09:57:28;;;;;;;25.90;11.55;;;3.00;99.90;;;;;;5006697;28;20520;-73
2021/01/28 09:59:59;;;;;;;20.15;9.35;;;3.00;99.90;;;;;;5044929;28;20136;-74
2021/01/28 10:02:49;;;;;;;19.42;9.30;;;2.80;99.90;;;;;;5029559;28;20051;-74
2021/01/28 10:05:22;;;;;;;19.95;9.15;;;2.80;99.90;;;;;;5022454;28;20136;-74
2021/01/28 10:07:50;;;;;;;22.08;9.70;;;2.70;99.90;;;;;;5060918;28;20339;-74
2021/01/28 10:10:19;;;;;;;17.02;8.98;;;2.70;99.90;;;;;;5041109;28;20037;-74
2021/01/28 10:12:47;;;;;;;13.13;7.68;;;2.70;99.90;;;;;;5044319;28;20048;-74
2021/01/28 10:15:14;;;;;;;14.30;8.20;;;2.70;99.90;;;;;;5026973;28;20047;-74
2021/01/28 10:17:44;;;;;;;14.15;8.20;;;2.70;99.90;;;;;;5046600;28;20045;-74
2021/01/28 10:20:13;;;;;;;15.88;7.82;;;2.70;99.90;;;;;;5031046;28;20049;-74
2021/01/28 10:22:42;;;;;;;14.18;7.55;;;2.70;99.90;;;;;;5031274;28;20047;-73
2021/01/28 10:25:13;;;;;;;13.38;7.93;;;2.70;99.90;;;;;;5051440;28;20762;-74
2021/01/28 10:27:41;;;;;;;11.85;7.18;;;2.70;99.90;;;;;;5036043;28;20478;-74
2021/01/28 10:30:10;;;;;;;11.80;8.52;;;2.70;99.90;;;;;;5047250;28;20060;-74
2021/01/28 10:32:37;;;;;;;16.40;8.68;;;2.70;99.90;;;;;;5033820;28;20067;-74
2021/01/28 10:35:05;;;;;;;13.55;9.57;;;2.70;99.90;;;;;;5030806;28;20110;-74
2021/01/28 10:37:32;;;;;;;16.98;9.35;;;2.70;99.90;;;;;;5036706;28;20054;-75
2021/01/28 10:39:58;;;;;;;17.55;8.98;;;2.80;99.90;;;;;;5026584;28;20049;-74
2021/01/28 10:42:32;;;;;;;18.90;8.80;;;2.80;99.90;;;;;;5027385;28;20056;-74
2021/01/28 10:44:59;;;;;;;9.57;6.72;;;2.80;99.90;;;;;;5028937;28;20416;-74
2021/01/28 10:47:26;;;;;;;7.95;6.32;;;2.70;99.90;;;;;;5030964;28;20052;-74
2021/01/28 10:50:09;;;;;;;10.02;7.03;;;2.70;99.90;;;;;;5017093;28;20506;-74
2021/01/28 10:52:37;;;;;;;9.13;5.93;;;2.70;99.90;;;;;;5012835;28;20504;-74
2021/01/28 10:55:05;;;;;;;8.45;5.55;;;2.60;99.90;;;;;;5029935;28;20298;-73
2021/01/28 10:57:32;;;;;;;8.32;5.55;;;2.60;99.90;;;;;;5045447;28;20120;-74
2021/01/28 10:59:59;;;;;;;7.32;5.45;;;2.50;99.90;;;;;;5013103;28;20545;-74
2021/01/28 11:02:26;;;;;;;7.00;4.97;;;2.40;99.90;;;;;;5036025;28;20128;-74
2021/01/28 11:04:53;;;;;;;8.20;5.35;;;2.40;99.90;;;;;;5050090;28;20124;-74
2021/01/28 11:07:19;;;;;;;7.45;4.63;;;2.50;99.90;;;;;;5009571;28;20076;-77
2021/01/28 11:09:46;;;;;;;8.05;6.05;;;2.50;99.90;;;;;;5039370;28;20144;-77
2021/01/28 11:12:12;;;;;;;6.55;5.85;;;2.60;99.90;;;;;;5039331;28;20123;-77
2021/01/28 11:14:39;;;;;;;5.38;4.88;;;2.60;99.90;;;;;;5058292;28;20055;-77
2021/01/28 11:17:05;;;;;;;6.53;5.35;;;2.60;99.90;;;;;;5065708;28;20052;-77
2021/01/28 11:19:32;;;;;;;6.07;4.80;;;2.60;99.90;;;;;;5067762;28;20052;-77
2021/01/28 11:21:58;;;;;;;6.05;4.60;;;2.60;99.90;;;;;;5024367;28;20113;-77
2021/01/28 11:24:25;;;;;;;6.32;4.70;;;2.50;99.90;;;;;;5026273;28;20046;-76
2021/01/28 11:26:51;;;;;;;5.22;4.72;;;2.40;99.90;;;;;;5030796;28;20041;-76
2021/01/28 11:29:22;;;;;;;6.45;5.43;;;2.30;99.90;;;;;;5028711;28;20136;-76
2021/01/28 11:31:48;;;;;;;5.90;5.32;;;2.40;99.90;;;;;;5045968;28;20045;-77
2021/01/28 11:34:15;;;;;;;5.82;4.80;;;2.40;99.90;;;;;;5055003;28;20048;-76
2021/01/28 11:36:41;;;;;;;5.55;4.88;;;2.30;99.90;;;;;;5028886;28;20110;-76
2021/01/28 11:39:08;;;;;;;5.88;4.70;;;2.30;99.90;;;;;;5026056;28;20137;-77
2021/01/28 11:41:35;;;;;;;5.70;5.20;;;2.40;99.90;;;;;;5041077;28;20049;-77
2021/01/28 11:44:02;;;;;;;5.53;5.03;;;2.30;99.90;;;;;;5023945;28;20115;-76
2021/01/28 11:46:28;;;;;;;5.07;4.55;;;2.30;99.90;;;;;;5045519;28;20075;-76
2021/01/28 11:48:55;;;;;;;6.90;6.20;;;2.20;99.90;;;;;;5029711;28;20048;-76
2021/01/28 11:51:22;;;;;;;5.18;4.70;;;2.30;99.90;;;;;;5028509;28;20072;-76
2021/01/28 11:54:02;;;;;;;9.65;5.88;;;2.20;99.90;;;;;;5019499;28;20156;-76
2021/01/28 11:56:28;;;;;;;9.13;7.78;;;2.30;99.90;;;;;;5008053;28;20659;-76
2021/01/28 11:58:55;;;;;;;6.85;5.75;;;2.20;99.90;;;;;;5023383;28;20037;-76
2021/01/28 12:01:22;;;;;;;21.90;15.95;;;2.30;99.90;;;;;;5038603;28;20036;-75
2021/01/28 12:03:49;;;;;;;6.35;5.60;;;2.30;99.90;;;;;;5023394;28;20068;-75
2021/01/28 12:06:16;;;;;;;7.38;6.72;;;2.30;99.90;;;;;;5031224;28;20550;-75
2021/01/28 12:08:43;;;;;;;7.53;6.93;;;2.40;99.90;;;;;;5028789;28;20091;-76
2021/01/28 12:11:10;;;;;;;4.85;4.45;;;2.20;99.90;;;;;;5010140;28;20048;-75
2021/01/28 12:13:37;;;;;;;5.00;4.60;;;2.30;99.90;;;;;;5028623;28;20918;-76
2021/01/28 12:16:06;;;;;;;35.17;24.15;;;2.30;99.90;;;;;;5026860;28;20045;-76
2021/01/28 12:18:33;;;;;;;22.13;18.67;;;2.20;99.90;;;;;;5028376;28;20049;-75
2021/01/28 12:21:01;;;;;;;9.90;8.95;;;2.20;99.90;;;;;;5028376;28;20076;-76
2021/01/28 12:23:28;;;;;;;7.78;7.13;;;2.10;99.90;;;;;;5028316;28;20045;-76
2021/01/28 12:25:55;;;;;;;8.75;8.00;;;2.10;99.90;;;;;;5038651;28;20137;-77
2021/01/28 12:28:23;;;;;;;5.65;5.15;;;2.20;99.90;;;;;;5045112;28;20107;-74
2021/01/28 12:30:50;;;;;;;21.17;13.77;;;2.20;99.90;;;;;;5043009;28;20103;-75
2021/01/28 12:33:17;;;;;;;5.88;5.40;;;2.20;99.90;;;;;;5034408;28;20150;-75
2021/01/28 12:35:44;;;;;;;9.90;9.07;;;2.10;99.90;;;;;;5034223;28;20529;-75
2021/01/28 12:38:12;;;;;;;9.75;8.88;;;2.10;99.90;;;;;;5046484;28;20143;-75
2021/01/28 12:40:39;;;;;;;9.82;7.78;;;2.20;99.90;;;;;;5044866;28;20130;-75
2021/01/28 12:43:07;;;;;;;8.48;6.95;;;2.30;99.90;;;;;;5015083;28;20048;-75
2021/01/28 12:45:34;;;;;;;21.13;19.35;;;2.30;99.90;;;;;;5034488;28;20053;-74
2021/01/28 12:48:02;;;;;;;8.27;7.78;;;2.30;99.90;;;;;;5030054;28;20180;-75
2021/01/28 12:50:29;;;;;;;6.68;6.25;;;2.10;99.90;;;;;;5048827;28;20053;-74
2021/01/28 12:52:56;;;;;;;22.65;20.83;;;2.10;99.90;;;;;;5045755;28;20049;-75
2021/01/28 12:55:24;;;;;;;8.13;7.45;;;2.30;99.90;;;;;;5027185;28;20123;-75
2021/01/28 12:57:51;;;;;;;6.75;6.22;;;2.30;99.90;;;;;;5043668;28;20049;-76
2021/01/28 13:00:20;;;;;;;8.52;7.88;;;2.20;99.90;;;;;;5010448;28;20057;-74
2021/01/28 13:02:48;;;;;;;6.95;6.45;;;2.20;99.90;;;;;;5036674;28;20524;-75
2021/01/28 13:05:16;;;;;;;8.70;8.00;;;2.10;99.90;;;;;;5027772;28;20053;-75
2021/01/28 13:07:42;;;;;;;8.85;8.05;;;2.10;99.90;;;;;;5045005;28;20049;-75
2021/01/28 13:10:09;;;;;;;7.32;6.72;;;2.10;99.90;;;;;;5045205;28;20076;-74
2021/01/28 13:12:37;;;;;;;7.60;7.07;;;2.10;99.90;;;;;;5011577;28;20045;-74
2021/01/28 13:15:06;;;;;;;8.35;7.47;;;2.10;99.90;;;;;;5035828;28;20059;-75
2021/01/28 13:17:32;;;;;;;7.72;7.13;;;2.10;99.90;;;;;;5023789;28;20057;-75
2021/01/28 13:19:59;;;;;;;7.50;7.00;;;2.20;99.90;;;;;;5039651;28;20135;-74
2021/01/28 13:22:26;;;;;;;9.98;9.27;;;2.10;99.90;;;;;;5026143;28;20055;-75
2021/01/28 13:24:52;;;;;;;8.57;7.88;;;2.10;99.90;;;;;;5025912;28;20045;-74